createdAt,value
2018-09-26T00:03:08.009Z,83.78
2018-09-26T00:06:13.196Z,83.76
2018-09-26T00:09:20.785Z,82.84
2018-09-26T00:12:26.074Z,82.86
2018-09-26T00:15:32.186Z,82.42
2018-09-26T00:18:38.039Z,81.67
2018-09-26T00:21:43.867Z,81.34
2018-09-26T00:24:48.882Z,81.47
2018-09-26T00:27:55.633Z,82.67
2018-09-26T00:31:01.863Z,82.68
2018-09-26T00:34:06.871Z,83.72
2018-09-26T00:37:12.991Z,82.36
2018-09-26T00:40:18.091Z,81.99
2018-09-26T00:43:23.881Z,83.17
2018-09-26T00:46:29.939Z,82.69
2018-09-26T00:49:36.206Z,82.74
2018-09-26T00:52:42.686Z,81.67
2018-09-26T00:55:47.749Z,81.65
2018-09-26T00:58:53.472Z,82.07
2018-09-26T01:01:58.528Z,82.31
2018-09-26T01:05:05.172Z,83.35
2018-09-26T01:08:11.306Z,83.15
2018-09-26T01:11:16.449Z,82.51
2018-09-26T01:14:22.625Z,82.29
2018-09-26T01:17:29.326Z,82.28
2018-09-26T01:20:35.229Z,81.88
2018-09-26T01:23:42.171Z,83.16
2018-09-26T01:26:47.998Z,81.74
2018-09-26T01:29:55.322Z,82.23
2018-09-26T01:33:02.426Z,83.07
2018-09-26T01:36:07.451Z,83.78
2018-09-26T01:39:12.575Z,83.34
2018-09-26T01:42:18.153Z,83.83
2018-09-26T01:45:24.757Z,84.81
2018-09-26T01:48:30.758Z,84.74
2018-09-26T01:51:36.548Z,84.30
2018-09-26T01:54:41.587Z,83.65
2018-09-26T01:57:47.829Z,83.35
2018-09-26T02:00:53.990Z,84.21
2018-09-26T02:04:00.530Z,84.36
2018-09-26T02:07:06.689Z,82.85
2018-09-26T02:10:11.889Z,83.43
2018-09-26T02:13:16.910Z,83.64
2018-09-26T02:16:21.997Z,83.51
2018-09-26T02:19:27.027Z,82.82
2018-09-26T02:22:32.961Z,82.69
2018-09-26T02:25:39.848Z,82.81
2018-09-26T02:28:44.892Z,83.68
2018-09-26T02:31:50.781Z,83.58
2018-09-26T02:34:56.946Z,82.80
2018-09-26T02:38:03.156Z,82.27
2018-09-26T02:41:10.058Z,83.12
2018-09-26T02:44:16.942Z,82.83
2018-09-26T02:47:23.726Z,82.92
2018-09-26T02:50:29.575Z,83.09
2018-09-26T02:53:37.156Z,83.15
2018-09-26T02:56:42.163Z,82.64
2018-09-26T02:59:48.304Z,82.71
2018-09-26T03:02:53.338Z,83.20
2018-09-26T03:05:59.078Z,82.85
2018-09-26T03:09:06.895Z,84.16
2018-09-26T03:12:13.456Z,82.65
2018-09-26T03:15:19.520Z,83.56
2018-09-26T03:18:25.626Z,84.35
2018-09-26T03:21:30.870Z,83.78
2018-09-26T03:24:37.578Z,82.45
2018-09-26T03:27:42.610Z,83.45
2018-09-26T03:30:48.879Z,83.00
2018-09-26T03:33:56.058Z,83.52
2018-09-26T03:37:02.307Z,83.82
2018-09-26T03:40:09.209Z,83.00
2018-09-26T03:43:15.878Z,82.83
2018-09-26T03:46:20.922Z,82.61
2018-09-26T03:49:28.762Z,83.23
2018-09-26T03:52:33.815Z,83.76
2018-09-26T03:55:40.554Z,83.91
2018-09-26T03:58:46.691Z,83.51
2018-09-26T04:01:53.380Z,82.59
2018-09-26T04:04:58.404Z,83.26
2018-09-26T04:08:04.687Z,83.00
2018-09-26T04:11:11.251Z,84.01
2018-09-26T04:14:17.271Z,84.48
2018-09-26T04:17:23.358Z,82.19
2018-09-26T04:20:29.605Z,84.23
2018-09-26T04:23:35.381Z,82.68
2018-09-26T04:26:41.414Z,82.43
2018-09-26T04:29:47.304Z,81.84
2018-09-26T04:32:53.518Z,83.38
2018-09-26T04:35:59.857Z,83.57
2018-09-26T04:39:07.854Z,82.21
2018-09-26T04:42:13.785Z,83.71
2018-09-26T04:45:21.506Z,83.00
2018-09-26T04:48:28.062Z,82.35
2018-09-26T04:51:36.533Z,84.09
2018-09-26T04:54:44.151Z,83.80
2018-09-26T04:57:51.335Z,84.43
2018-09-26T05:00:57.463Z,84.04
2018-09-26T05:04:03.306Z,83.69
2018-09-26T05:07:11.560Z,85.16
2018-09-26T05:10:17.910Z,83.70
2018-09-26T05:25:22.313Z,84.68
2018-09-26T05:28:29.131Z,83.03
2018-09-26T05:31:35.906Z,84.34
2018-09-26T05:34:42.478Z,82.98
2018-09-26T05:37:48.321Z,82.59
2018-09-26T05:40:55.222Z,82.11
2018-09-26T05:44:01.434Z,84.11
2018-09-26T05:47:08.231Z,82.34
2018-09-26T05:50:15.104Z,82.57
2018-09-26T05:53:21.278Z,82.28
2018-09-26T05:56:28.399Z,82.74
2018-09-26T05:59:34.773Z,83.52
2018-09-26T06:02:40.841Z,83.33
2018-09-26T06:05:46.714Z,83.04
2018-09-26T06:08:52.666Z,82.10
2018-09-26T06:11:58.538Z,82.68
2018-09-26T06:15:04.281Z,82.65
2018-09-26T06:18:10.506Z,82.57
2018-09-26T06:21:15.981Z,82.47
2018-09-26T06:24:21.125Z,82.48
2018-09-26T06:27:26.449Z,81.71
2018-09-26T06:30:33.058Z,81.43
2018-09-26T06:33:38.914Z,80.63
2018-09-26T06:36:44.699Z,80.11
2018-09-26T06:40:53.234Z,79.99
2018-09-26T06:44:00.229Z,79.58
2018-09-26T06:47:05.461Z,80.22
2018-09-26T06:50:10.546Z,79.91
2018-09-26T06:53:15.582Z,80.55
2018-09-26T06:56:20.611Z,80.42
2018-09-26T06:59:25.620Z,79.66
2018-09-26T07:02:31.666Z,80.04
2018-09-26T07:05:36.809Z,78.76
2018-09-26T07:08:42.874Z,79.56
2018-09-26T07:11:48.847Z,78.26
2018-09-26T07:14:55.163Z,77.77
2018-09-26T07:18:01.021Z,77.35
2018-09-26T07:21:06.291Z,76.76
2018-09-26T07:24:12.861Z,78.29
2018-09-26T07:27:19.149Z,77.34
2018-09-26T07:30:24.290Z,75.81
2018-09-26T07:33:30.092Z,75.48
2018-09-26T07:36:35.098Z,75.13
2018-09-26T07:39:40.313Z,75.59
2018-09-26T07:42:47.209Z,74.71
2018-09-26T07:45:53.417Z,73.56
2018-09-26T07:48:59.210Z,73.04
2018-09-26T07:52:05.170Z,73.71
2018-09-26T07:55:10.334Z,73.78
2018-09-26T07:58:17.278Z,72.42
2018-09-26T08:01:23.844Z,72.15
2018-09-26T08:04:30.625Z,70.79
2018-09-26T08:07:36.741Z,69.75
2018-09-26T08:10:42.591Z,69.22
2018-09-26T08:13:49.621Z,68.57
2018-09-26T08:16:55.498Z,67.39
2018-09-26T08:20:02.001Z,67.00
2018-09-26T08:23:07.135Z,66.95
2018-09-26T08:26:14.131Z,67.55
2018-09-26T08:29:20.361Z,67.19
2018-09-26T08:32:27.591Z,66.34
2018-09-26T08:35:34.400Z,66.15
2018-09-26T08:38:41.206Z,67.61
2018-09-26T08:41:47.404Z,65.90
2018-09-26T08:48:24.078Z,66.05
2018-09-26T08:51:30.843Z,66.11
2018-09-26T08:54:36.752Z,67.08
2018-09-26T08:57:42.967Z,66.81
2018-09-26T09:00:50.932Z,67.12
2018-09-26T09:03:56.938Z,66.93
2018-09-26T09:07:03.784Z,66.54
2018-09-26T09:17:23.692Z,65.26
2018-09-26T09:20:33.159Z,65.75
2018-09-26T09:23:38.151Z,64.97
2018-09-26T09:26:50.795Z,62.91
2018-09-26T09:29:57.640Z,62.78
2018-09-26T09:33:04.620Z,53.94
2018-09-26T09:36:11.625Z,52.78
2018-09-26T09:39:16.854Z,53.18
2018-09-26T09:42:22.048Z,49.61
2018-09-26T09:45:35.449Z,50.01
2018-09-26T09:48:42.370Z,47.87
2018-09-26T09:51:49.331Z,46.26
2018-09-26T09:54:55.717Z,47.95
2018-09-26T09:58:01.678Z,47.15
2018-09-26T10:01:14.027Z,48.05
2018-09-26T10:04:19.073Z,45.25
2018-09-26T10:07:24.954Z,45.74
2018-09-26T10:10:30.827Z,45.53
2018-09-26T10:13:35.899Z,42.26
2018-09-26T10:16:41.641Z,42.17
2018-09-26T10:19:47.350Z,43.41
2018-09-26T10:22:52.413Z,43.85
2018-09-26T10:25:58.356Z,43.09
2018-09-26T10:29:03.472Z,41.96
2018-09-26T10:32:09.210Z,42.33
2018-09-26T10:35:15.233Z,39.20
2018-09-26T10:38:21.538Z,41.91
2018-09-26T10:41:27.375Z,39.98
2018-09-26T10:44:33.191Z,38.79
2018-09-26T10:47:40.523Z,38.90
2018-09-26T10:50:45.503Z,38.84
2018-09-26T10:53:52.001Z,37.57
2018-09-26T10:56:57.820Z,39.99
2018-09-26T11:00:03.719Z,38.85
2018-09-26T11:03:09.793Z,40.62
2018-09-26T11:06:16.106Z,38.77
2018-09-26T11:09:21.168Z,38.79
2018-09-26T11:12:27.868Z,39.67
2018-09-26T11:15:33.476Z,37.94
2018-09-26T11:18:41.295Z,39.21
2018-09-26T11:21:47.447Z,37.63
2018-09-26T11:24:53.658Z,37.28
2018-09-26T11:28:00.522Z,39.45
2018-09-26T11:31:06.615Z,40.15
2018-09-26T11:34:13.017Z,38.51
2018-09-26T11:37:18.137Z,39.39
2018-09-26T11:40:24.056Z,39.65
2018-09-26T11:43:29.843Z,37.97
2018-09-26T11:46:36.447Z,38.96
2018-09-26T11:49:41.608Z,38.62
2018-09-26T11:52:47.873Z,39.51
2018-09-26T11:55:54.518Z,39.36
2018-09-26T11:59:00.284Z,39.27
2018-09-26T12:02:07.089Z,36.21
2018-09-26T12:05:13.097Z,35.86
2018-09-26T12:08:19.401Z,36.98
2018-09-26T12:25:21.142Z,36.00
2018-09-26T12:28:27.623Z,35.02
2018-09-26T12:31:34.058Z,34.38
2018-09-26T12:34:39.985Z,34.63
2018-09-26T12:37:46.308Z,35.44
2018-09-26T12:40:52.786Z,35.24
2018-09-26T12:43:57.965Z,32.83
2018-09-26T12:47:04.739Z,31.01
2018-09-26T12:50:11.502Z,31.70
2018-09-26T12:53:16.684Z,32.12
2018-09-26T12:56:21.777Z,34.11
2018-09-26T12:59:27.989Z,35.04
2018-09-26T13:02:39.136Z,31.53
2018-09-26T13:05:48.097Z,34.33
2018-09-26T13:09:04.282Z,35.20
2018-09-26T13:12:13.175Z,34.63
2018-09-26T13:15:23.636Z,33.95
2018-09-26T13:18:32.917Z,34.70
2018-09-26T13:21:38.555Z,35.91
2018-09-26T13:24:45.787Z,35.98
2018-09-26T13:27:52.925Z,35.39
2018-09-26T13:30:58.939Z,35.96
2018-09-26T13:34:05.361Z,33.40
2018-09-26T13:37:13.378Z,35.96
2018-09-26T13:40:19.179Z,34.38
2018-09-26T13:43:26.197Z,32.40
2018-09-26T13:46:33.191Z,34.49
2018-09-26T13:49:41.551Z,33.64
2018-09-26T13:52:48.593Z,32.24
2018-09-26T13:55:53.918Z,35.94
2018-09-26T13:59:03.565Z,34.33
2018-09-26T14:02:09.828Z,34.25
2018-09-26T14:05:21.491Z,33.41
2018-09-26T14:08:32.814Z,31.76
2018-09-26T14:11:42.819Z,34.69
2018-09-26T14:14:57.138Z,33.61
2018-09-26T14:18:03.635Z,34.07
2018-09-26T14:21:26.073Z,36.61
2018-09-26T14:24:33.924Z,37.14
2018-09-26T14:27:42.798Z,37.21
2018-09-26T14:30:48.978Z,36.87
2018-09-26T14:33:58.551Z,37.35
2018-09-26T14:37:06.895Z,37.09
2018-09-26T14:40:17.057Z,36.04
2018-09-26T14:43:26.948Z,37.82
2018-09-26T14:46:39.073Z,37.32
2018-09-26T14:49:47.607Z,37.33
2018-09-26T14:52:57.455Z,37.36
2018-09-26T14:56:08.619Z,38.17
2018-09-26T14:59:20.905Z,37.06
2018-09-26T15:02:26.989Z,37.86
2018-09-26T15:05:33.328Z,38.70
2018-09-26T15:08:42.437Z,37.69
2018-09-26T15:11:57.193Z,37.96
2018-09-26T15:15:07.666Z,38.61
2018-09-26T15:18:13.823Z,37.42
2018-09-26T15:21:27.505Z,38.33
2018-09-26T15:24:41.605Z,38.34
2018-09-26T15:27:50.636Z,39.02
2018-09-26T15:31:08.407Z,39.53
2018-09-26T15:34:16.037Z,40.16
2018-09-26T15:37:46.201Z,40.12
2018-09-26T15:40:51.438Z,41.10
2018-09-26T15:43:58.145Z,41.44
2018-09-26T15:47:05.140Z,40.15
2018-09-26T15:50:11.722Z,41.84
2018-09-26T15:53:17.994Z,40.90
2018-09-26T15:56:24.279Z,41.08
2018-09-26T15:59:29.800Z,43.58
2018-09-26T16:02:35.135Z,43.19
2018-09-26T16:05:41.366Z,44.87
2018-09-26T16:08:47.328Z,46.24
2018-09-26T16:11:54.109Z,49.25
2018-09-26T16:15:10.346Z,50.58
2018-09-26T16:18:18.943Z,50.94
2018-09-26T16:21:24.802Z,51.86
2018-09-26T16:24:35.630Z,53.41
2018-09-26T16:27:44.471Z,53.06
2018-09-26T16:30:50.787Z,54.34
2018-09-26T16:33:56.961Z,55.05
2018-09-26T16:37:03.600Z,55.49
2018-09-26T16:40:13.121Z,56.99
2018-09-26T16:43:21.513Z,56.62
2018-09-26T16:46:27.839Z,56.78
2018-09-26T16:49:33.866Z,57.44
2018-09-26T16:52:40.229Z,58.53
2018-09-26T16:55:45.690Z,59.63
2018-09-26T16:58:53.356Z,60.60
2018-09-26T17:01:58.546Z,61.58
2018-09-26T17:05:06.196Z,61.96
2018-09-26T17:08:13.837Z,62.80
2018-09-26T17:11:23.710Z,62.84
2018-09-26T17:14:29.235Z,63.90
2018-09-26T17:17:35.391Z,63.03
2018-09-26T17:20:43.592Z,65.09
2018-09-26T17:23:50.570Z,65.62
2018-09-26T17:26:56.447Z,65.42
2018-09-26T17:30:03.635Z,65.99
2018-09-26T17:33:10.732Z,66.29
2018-09-26T17:36:17.600Z,66.93
2018-09-26T17:39:24.585Z,68.78
2018-09-26T17:56:29.878Z,70.33
2018-09-26T17:59:35.118Z,70.78
2018-09-26T18:02:41.007Z,71.05
2018-09-26T18:05:48.112Z,71.96
2018-09-26T18:08:54.431Z,72.24
2018-09-26T18:12:00.514Z,71.85
2018-09-26T18:15:07.654Z,72.82
2018-09-26T18:18:12.879Z,72.03
2018-09-26T18:21:19.555Z,73.29
2018-09-26T18:24:25.793Z,73.28
2018-09-26T18:27:32.774Z,73.05
2018-09-26T18:30:39.968Z,73.41
2018-09-26T18:33:48.221Z,74.51
2018-09-26T18:36:54.255Z,74.83
2018-09-26T18:40:00.377Z,75.35
2018-09-26T18:43:06.566Z,75.44
2018-09-26T18:46:12.797Z,74.74
2018-09-26T18:49:20.774Z,75.49
2018-09-26T18:52:28.565Z,75.07
2018-09-26T18:55:37.002Z,75.10
2018-09-26T18:58:44.723Z,77.16
2018-09-26T19:01:50.690Z,76.28
2018-09-26T19:04:59.094Z,76.84
2018-09-26T19:08:04.765Z,77.07
2018-09-26T19:11:10.525Z,76.40
2018-09-26T19:14:16.798Z,77.29
2018-09-26T19:17:23.566Z,77.23
2018-09-26T19:20:29.517Z,76.74
2018-09-26T19:23:34.509Z,77.22
2018-09-26T19:26:40.165Z,77.03
2018-09-26T19:29:46.084Z,76.58
2018-09-26T19:32:52.963Z,77.35
2018-09-26T19:35:59.411Z,77.16
2018-09-26T19:39:07.092Z,77.98
2018-09-26T19:42:13.690Z,78.10
2018-09-26T19:45:19.763Z,78.53
2018-09-26T19:48:26.717Z,77.88
2018-09-26T19:51:32.457Z,77.89
2018-09-26T19:54:39.446Z,79.06
2018-09-26T19:57:45.519Z,79.29
2018-09-26T20:00:52.410Z,78.70
2018-09-26T20:03:58.560Z,79.53
2018-09-26T20:07:05.092Z,79.95
2018-09-26T20:10:11.469Z,80.07
2018-09-26T20:13:17.991Z,78.75
2018-09-26T20:16:24.883Z,78.91
2018-09-26T20:19:31.655Z,78.96
2018-09-26T20:22:37.739Z,78.98
2018-09-26T20:25:43.557Z,79.36
2018-09-26T20:28:49.913Z,78.85
2018-09-26T20:31:55.690Z,80.20
2018-09-26T20:35:01.600Z,79.04
2018-09-26T20:38:07.507Z,79.61
2018-09-26T20:41:14.181Z,80.33
2018-09-26T20:44:20.325Z,79.90
2018-09-26T20:47:25.966Z,80.56
2018-09-26T20:50:33.257Z,79.69
2018-09-26T20:53:39.006Z,80.03
2018-09-26T20:56:45.804Z,79.87
2018-09-26T20:59:52.465Z,80.24
2018-09-26T21:02:59.787Z,81.21
2018-09-26T21:06:06.530Z,80.16
2018-09-26T21:09:13.418Z,80.52
2018-09-26T21:14:53.067Z,80.94
2018-09-26T21:18:00.119Z,80.86
2018-09-26T21:21:06.605Z,81.80
2018-09-26T21:24:13.926Z,80.06
2018-09-26T21:27:20.510Z,79.75
2018-09-26T21:30:27.195Z,79.78
2018-09-26T21:33:33.380Z,81.34
2018-09-26T21:36:38.405Z,81.05
2018-09-26T21:39:45.237Z,80.84
2018-09-26T21:42:51.455Z,81.35
2018-09-26T21:45:58.061Z,81.50
2018-09-26T21:49:04.312Z,81.39
2018-09-26T21:52:10.978Z,81.65
2018-09-26T21:55:18.231Z,81.92
2018-09-26T21:58:25.130Z,81.15
2018-09-26T22:01:39.353Z,81.75
2018-09-26T22:04:45.235Z,82.10
2018-09-26T22:07:51.437Z,81.02
2018-09-26T22:10:56.457Z,80.57
2018-09-26T22:14:02.598Z,80.53
2018-09-26T22:17:09.640Z,80.82
2018-09-26T22:20:17.395Z,81.33
2018-09-26T22:23:24.254Z,80.99
2018-09-26T22:26:30.023Z,82.03
2018-09-26T22:29:36.193Z,81.37
2018-09-26T22:32:43.046Z,81.10
2018-09-26T22:35:49.191Z,81.70
2018-09-26T22:38:56.081Z,81.48
2018-09-26T22:42:02.050Z,81.47
2018-09-26T22:45:08.516Z,80.93
2018-09-26T22:48:13.505Z,81.60
2018-09-26T22:51:18.666Z,81.05
2018-09-26T22:54:24.446Z,82.24
2018-09-26T22:57:30.542Z,82.42
2018-09-26T23:00:37.181Z,82.86
2018-09-26T23:03:43.230Z,81.98
2018-09-26T23:06:49.357Z,81.28
2018-09-26T23:09:55.161Z,81.45
2018-09-26T23:13:00.954Z,82.11
2018-09-26T23:16:06.666Z,82.15
2018-09-26T23:19:11.780Z,81.18
2018-09-26T23:22:18.392Z,81.03
2018-09-26T23:25:24.455Z,82.67
2018-09-26T23:28:31.373Z,81.01
2018-09-26T23:31:37.212Z,81.69
2018-09-26T23:34:43.434Z,81.35
2018-09-26T23:37:49.386Z,82.83
2018-09-26T23:40:55.658Z,82.02
2018-09-26T23:44:02.124Z,83.10
2018-09-26T23:47:07.886Z,82.26
2018-09-26T23:50:14.044Z,83.23
2018-09-26T23:53:21.238Z,82.35
2018-09-26T23:56:27.084Z,83.56
2018-09-26T23:59:32.945Z,83.35
